createdAt,value
2019-03-12T00:00:01.403Z,102053.63
2019-03-12T00:02:48.952Z,102029.69
2019-03-12T00:05:34.375Z,102026.30
2019-03-12T00:08:19.406Z,102035.11
2019-03-12T00:11:03.637Z,102056.17
2019-03-12T00:13:36.126Z,102064.42
2019-03-12T00:16:20.153Z,102036.52
2019-03-12T00:19:05.502Z,102062.93
2019-03-12T00:21:49.265Z,102030.97
2019-03-12T00:24:34.469Z,102062.88
2019-03-12T00:27:19.188Z,102069.28
2019-03-12T00:30:04.395Z,102059.77
2019-03-12T00:32:49.130Z,102039.69
2019-03-12T00:35:21.304Z,102064.50
2019-03-12T00:38:05.585Z,102068.16
2019-03-12T00:40:50.643Z,102041.91
2019-03-12T00:43:34.471Z,102060.69
2019-03-12T00:46:19.761Z,102035.93
2019-03-12T00:49:04.024Z,102033.26
2019-03-12T00:54:55.566Z,102029.17
2019-03-12T00:57:40.004Z,102057.48
2019-03-12T01:00:26.305Z,102047.56
2019-03-12T01:03:10.535Z,102015.72
2019-03-12T01:05:55.152Z,102024.06
2019-03-12T01:08:40.662Z,102037.28
2019-03-12T01:11:12.956Z,102058.70
2019-03-12T01:16:45.104Z,102073.66
2019-03-12T01:22:17.589Z,102075.86
2019-03-12T01:25:02.702Z,102046.55
2019-03-12T01:27:47.871Z,102071.23
2019-03-12T01:30:32.571Z,102059.19
2019-03-12T01:33:17.864Z,102057.02
2019-03-12T01:36:02.264Z,102037.84
2019-03-12T01:38:46.123Z,102040.69
2019-03-12T01:41:31.583Z,102037.46
2019-03-12T01:44:17.741Z,102036.91
2019-03-12T01:47:02.798Z,102050.45
2019-03-12T01:49:47.445Z,102045.52
2019-03-12T01:52:19.565Z,102046.77
2019-03-12T01:54:51.799Z,102051.06
2019-03-12T02:00:44.971Z,102047.45
2019-03-12T02:03:30.361Z,102049.23
2019-03-12T02:06:14.914Z,102009.36
2019-03-12T02:09:00.288Z,102008.02
2019-03-12T02:14:32.406Z,102001.02
2019-03-12T02:17:17.491Z,102029.48
2019-03-12T02:20:03.133Z,102018.28
2019-03-12T02:22:48.463Z,101989.09
2019-03-12T02:25:20.920Z,102013.60
2019-03-12T02:28:05.782Z,102011.56
2019-03-12T02:30:51.118Z,102011.24
2019-03-12T02:36:19.441Z,101980.48
2019-03-12T02:39:03.580Z,102000.11
2019-03-12T02:41:50.075Z,102004.36
2019-03-12T02:44:34.879Z,102002.44
2019-03-12T02:47:20.092Z,102000.91
2019-03-12T02:50:05.829Z,102005.86
2019-03-12T02:52:52.121Z,102002.80
2019-03-12T02:55:24.339Z,102008.36
2019-03-12T02:58:09.174Z,102006.91
2019-03-12T03:00:53.928Z,101985.00
2019-03-12T03:03:38.276Z,101981.95
2019-03-12T03:06:45.002Z,101982.41
2019-03-12T03:09:28.459Z,101982.08
2019-03-12T03:12:13.679Z,101979.39
2019-03-12T03:14:58.872Z,101967.56
2019-03-12T03:17:43.766Z,101966.47
2019-03-12T03:20:29.418Z,101986.68
2019-03-12T03:23:14.450Z,101963.45
2019-03-12T03:26:00.318Z,101972.02
2019-03-12T03:28:45.451Z,102003.27
2019-03-12T03:31:29.148Z,102001.61
2019-03-12T03:34:12.758Z,101970.97
2019-03-12T03:36:57.934Z,101972.88
2019-03-12T03:39:42.193Z,101976.81
2019-03-12T03:42:29.538Z,101994.61
2019-03-12T03:45:15.205Z,101963.80
2019-03-12T03:48:01.118Z,101969.25
2019-03-12T03:50:44.853Z,101966.70
2019-03-12T03:53:29.371Z,101960.05
2019-03-12T03:56:13.414Z,101975.99
2019-03-12T03:58:58.118Z,101968.52
2019-03-12T04:01:43.457Z,101956.13
2019-03-12T04:04:27.909Z,101985.31
2019-03-12T04:07:12.724Z,101978.69
2019-03-12T04:09:58.651Z,101974.81
2019-03-12T04:12:45.150Z,101975.95
2019-03-12T04:15:29.278Z,101948.03
2019-03-12T04:18:14.663Z,101939.53
2019-03-12T04:21:00.860Z,101938.84
2019-03-12T04:23:45.873Z,101937.32
2019-03-12T04:26:29.931Z,101946.66
2019-03-12T04:29:15.014Z,101948.68
2019-03-12T04:32:00.458Z,101945.19
2019-03-12T04:34:46.224Z,101940.04
2019-03-12T04:37:31.395Z,101962.66
2019-03-12T04:40:16.667Z,101926.70
2019-03-12T04:43:02.229Z,101928.41
2019-03-12T04:45:47.607Z,101921.33
2019-03-12T04:48:31.560Z,101918.81
2019-03-12T04:51:15.605Z,101918.05
2019-03-12T04:56:49.565Z,101906.65
2019-03-12T04:59:34.713Z,101893.52
2019-03-12T05:02:19.718Z,101899.60
2019-03-12T05:05:04.649Z,101893.30
2019-03-12T05:07:49.554Z,101888.38
2019-03-12T05:10:33.752Z,101917.31
2019-03-12T05:13:19.591Z,101912.55
2019-03-12T05:16:04.642Z,101889.33
2019-03-12T05:21:35.973Z,101882.95
2019-03-12T05:24:21.120Z,101910.98
2019-03-12T05:27:04.827Z,101904.55
2019-03-12T05:29:37.590Z,101896.16
2019-03-12T05:32:35.115Z,101877.25
2019-03-12T05:35:21.437Z,101903.73
2019-03-12T05:38:06.529Z,101892.83
2019-03-12T05:43:57.085Z,101891.79
2019-03-12T05:46:42.200Z,101862.51
2019-03-12T05:52:34.094Z,101877.44
2019-03-12T05:55:18.770Z,101861.77
2019-03-12T05:58:04.977Z,101891.58
2019-03-12T06:00:49.374Z,101888.09
2019-03-12T06:03:22.680Z,101890.98
2019-03-12T06:06:07.231Z,101866.55
2019-03-12T06:08:52.446Z,101887.38
2019-03-12T06:11:37.226Z,101887.81
2019-03-12T06:14:21.813Z,101887.36
2019-03-12T06:17:06.513Z,101866.41
2019-03-12T06:19:51.866Z,101886.48
2019-03-12T06:22:24.091Z,101880.25
2019-03-12T06:25:16.098Z,101849.28
2019-03-12T06:28:01.934Z,101869.41
2019-03-12T06:31:05.746Z,101834.41
2019-03-12T06:33:55.204Z,101839.34
2019-03-12T06:36:47.077Z,101832.52
2019-03-12T06:39:43.038Z,101844.58
2019-03-12T06:43:00.170Z,101815.12
2019-03-12T06:46:04.510Z,101839.00
2019-03-12T06:48:59.800Z,101827.74
2019-03-12T06:52:08.893Z,101825.34
2019-03-12T06:55:01.583Z,101829.79
2019-03-12T06:58:28.575Z,101810.02
2019-03-12T07:01:32.733Z,101801.56
2019-03-12T07:04:25.724Z,101833.67
2019-03-12T07:07:29.295Z,101824.56
2019-03-12T07:10:28.992Z,101814.77
2019-03-12T07:13:29.387Z,101801.31
2019-03-12T07:16:07.802Z,101800.59
2019-03-12T07:19:11.335Z,101771.06
2019-03-12T07:22:05.995Z,101755.98
2019-03-12T07:25:10.052Z,101750.75
2019-03-12T07:28:14.579Z,101770.88
2019-03-12T07:31:19.909Z,101728.02
2019-03-12T07:34:17.966Z,101751.02
2019-03-12T07:37:30.973Z,101725.33
2019-03-12T07:40:27.843Z,101744.31
2019-03-12T07:43:33.904Z,101728.23
2019-03-12T07:46:38.787Z,101710.42
2019-03-12T07:49:30.210Z,101721.16
2019-03-12T07:52:34.120Z,101694.92
2019-03-12T07:55:38.451Z,101686.06
2019-03-12T07:58:42.603Z,101712.73
2019-03-12T08:01:39.155Z,101680.12
2019-03-12T08:04:43.771Z,101673.09
2019-03-12T08:08:00.339Z,101669.62
2019-03-12T08:11:04.725Z,101663.08
2019-03-12T08:13:55.729Z,101690.38
2019-03-12T08:16:58.547Z,101650.91
2019-03-12T08:20:10.479Z,101666.66
2019-03-12T08:23:19.924Z,101629.39
2019-03-12T08:26:19.785Z,101657.00
2019-03-12T08:29:28.831Z,101656.94
2019-03-12T08:32:23.999Z,101655.06
2019-03-12T08:35:42.817Z,101644.58
2019-03-12T08:38:59.895Z,101607.70
2019-03-12T08:42:03.166Z,101615.46
2019-03-12T08:45:11.281Z,101586.91
2019-03-12T08:48:13.308Z,101621.49
2019-03-12T08:51:30.069Z,101615.33
2019-03-12T08:57:41.605Z,101609.70
2019-03-12T09:03:35.055Z,101553.69
2019-03-12T09:06:38.522Z,101551.22
2019-03-12T09:09:42.652Z,101562.06
2019-03-12T09:12:49.072Z,101520.84
2019-03-12T09:15:52.861Z,101551.85
2019-03-12T09:21:44.591Z,101560.82
2019-03-12T09:24:47.881Z,101540.38
2019-03-12T09:27:54.269Z,101558.15
2019-03-12T09:30:58.181Z,101527.17
2019-03-12T09:34:02.118Z,101538.70
2019-03-12T09:37:09.515Z,101522.41
2019-03-12T09:46:10.110Z,101507.41
2019-03-12T09:49:20.979Z,101490.38
2019-03-12T09:52:13.898Z,101489.34
2019-03-12T09:55:11.124Z,101478.22
2019-03-12T09:58:20.617Z,101474.27
2019-03-12T10:01:25.053Z,101443.50
2019-03-12T10:04:26.308Z,101460.46
2019-03-12T10:10:17.677Z,101429.42
2019-03-12T10:13:24.495Z,101445.42
2019-03-12T10:16:31.664Z,101451.66
2019-03-12T10:22:11.370Z,101403.14
2019-03-12T10:25:14.039Z,101413.16
2019-03-12T10:31:31.176Z,101378.11
2019-03-12T10:34:29.587Z,101393.59
2019-03-12T10:37:27.646Z,101388.16
2019-03-12T10:40:32.598Z,101358.76
2019-03-12T10:43:39.233Z,101372.08
2019-03-12T10:46:43.714Z,101363.28
2019-03-12T10:49:37.549Z,101332.26
2019-03-12T10:52:15.367Z,101341.95
2019-03-12T10:55:12.223Z,101306.83
2019-03-12T10:57:46.053Z,101307.66
2019-03-12T11:00:31.194Z,101322.83
2019-03-12T11:03:15.446Z,101290.27
2019-03-12T11:06:00.122Z,101311.03
2019-03-12T11:08:44.209Z,101276.69
2019-03-12T11:11:29.281Z,101261.20
2019-03-12T11:14:14.314Z,101219.44
2019-03-12T11:17:00.885Z,101243.31
2019-03-12T11:19:44.761Z,101222.78
2019-03-12T11:22:30.037Z,101178.81
2019-03-12T11:25:26.523Z,101182.83
2019-03-12T11:28:03.369Z,101183.06
2019-03-12T11:30:55.215Z,101178.55
2019-03-12T11:36:47.448Z,101178.19
2019-03-12T11:39:33.388Z,101135.03
2019-03-12T11:42:18.157Z,101171.08
2019-03-12T11:45:02.302Z,101160.59
2019-03-12T11:47:48.289Z,101141.98
2019-03-12T11:50:32.236Z,101114.12
2019-03-12T11:53:17.322Z,101126.70
2019-03-12T11:56:02.164Z,101122.01
2019-03-12T11:58:47.111Z,101122.66
2019-03-12T12:07:30.740Z,101097.94
2019-03-12T12:10:14.719Z,101077.86
2019-03-12T12:13:00.014Z,101083.86
2019-03-12T12:15:44.082Z,101042.48
2019-03-12T12:18:29.410Z,101027.21
2019-03-12T12:21:14.380Z,101053.35
2019-03-12T12:23:59.098Z,101015.05
2019-03-12T12:29:12.758Z,101029.81
2019-03-12T12:31:56.283Z,100984.55
2019-03-12T12:34:29.581Z,101003.37
2019-03-12T12:37:14.060Z,100997.22
2019-03-12T12:39:59.418Z,100977.25
2019-03-12T12:42:45.681Z,100964.27
2019-03-12T12:45:30.807Z,100983.74
2019-03-12T12:48:15.841Z,100941.23
2019-03-12T12:51:03.537Z,100949.80
2019-03-12T12:53:47.734Z,100941.06
2019-03-12T12:56:32.621Z,100915.91
2019-03-12T12:59:16.773Z,100914.55
2019-03-12T13:02:01.192Z,100911.61
2019-03-12T13:04:44.673Z,100887.80
2019-03-12T13:07:29.583Z,100873.05
2019-03-12T13:10:01.781Z,100900.72
2019-03-12T13:12:54.509Z,100874.91
2019-03-12T13:15:26.832Z,100887.06
2019-03-12T13:18:11.597Z,100882.81
2019-03-12T13:20:55.873Z,100867.55
2019-03-12T13:23:41.021Z,100810.88
2019-03-12T13:26:25.363Z,100818.97
2019-03-12T13:29:09.510Z,100831.95
2019-03-12T13:31:53.867Z,100831.95
2019-03-12T13:34:26.143Z,100825.64
2019-03-12T13:37:11.360Z,100815.27
2019-03-12T13:39:55.470Z,100806.25
2019-03-12T13:42:41.902Z,100796.83
2019-03-12T13:45:26.945Z,100785.34
2019-03-12T13:48:11.025Z,100777.94
2019-03-12T13:50:54.767Z,100768.31
2019-03-12T13:53:38.979Z,100759.14
2019-03-12T13:56:23.598Z,100750.58
2019-03-12T13:59:07.712Z,100737.72
2019-03-12T14:01:52.365Z,100760.89
2019-03-12T14:04:24.477Z,100741.94
2019-03-12T14:06:56.711Z,100748.02
2019-03-12T14:09:41.375Z,100745.45
2019-03-12T14:12:27.873Z,100720.11
2019-03-12T14:15:00.398Z,100716.84
2019-03-12T14:17:45.196Z,100691.03
2019-03-12T14:20:36.698Z,100691.23
2019-03-12T14:23:27.749Z,100698.84
2019-03-12T14:26:12.933Z,100689.50
2019-03-12T14:28:57.541Z,100683.04
2019-03-12T14:31:29.809Z,100694.66
2019-03-12T14:34:15.206Z,100679.27
2019-03-12T14:37:00.433Z,100640.52
2019-03-12T14:39:46.065Z,100658.59
2019-03-12T14:42:31.642Z,100639.67
2019-03-12T14:48:02.979Z,100622.89
2019-03-12T14:50:48.134Z,100653.99
2019-03-12T14:53:32.807Z,100640.45
2019-03-12T14:56:16.637Z,100633.56
2019-03-12T14:59:01.098Z,100616.52
2019-03-12T15:01:45.024Z,100558.80
2019-03-12T15:04:29.797Z,100602.94
2019-03-12T15:09:58.474Z,100588.76
2019-03-12T15:12:42.906Z,100557.17
2019-03-12T15:15:29.521Z,100540.62
2019-03-12T15:18:13.668Z,100529.98
2019-03-12T15:20:57.870Z,100559.42
2019-03-12T15:23:41.886Z,100517.59
2019-03-12T15:26:26.289Z,100525.72
2019-03-12T15:29:10.280Z,100520.30
2019-03-12T15:32:03.576Z,100511.11
2019-03-12T15:34:40.309Z,100494.06
2019-03-12T15:37:25.091Z,100456.80
2019-03-12T15:42:55.921Z,100467.12
2019-03-12T15:45:28.123Z,100467.91
2019-03-12T15:48:12.318Z,100466.63
2019-03-12T15:50:56.729Z,100436.25
2019-03-12T15:53:40.793Z,100421.30
2019-03-12T15:56:25.544Z,100433.94
2019-03-12T15:59:14.131Z,100403.52
2019-03-12T16:01:58.571Z,100415.89
2019-03-12T16:04:46.601Z,100391.52
2019-03-12T16:07:31.433Z,100379.64
2019-03-12T16:10:19.259Z,100365.53
2019-03-12T16:13:02.976Z,100328.59
2019-03-12T16:15:47.087Z,100310.66
2019-03-12T16:18:30.968Z,100322.39
2019-03-12T16:21:17.408Z,100332.20
2019-03-12T16:24:01.699Z,100322.69
2019-03-12T16:26:34.210Z,100319.44
2019-03-12T16:29:19.532Z,100307.77
2019-03-12T16:32:03.299Z,100307.55
2019-03-12T16:37:21.626Z,100266.84
2019-03-12T16:40:06.120Z,100261.22
2019-03-12T16:42:50.658Z,100274.64
2019-03-12T16:45:35.242Z,100275.27
2019-03-12T16:48:20.157Z,100242.79
2019-03-12T16:54:06.964Z,100245.02
2019-03-12T16:56:52.306Z,100225.03
2019-03-12T16:59:38.311Z,100243.28
2019-03-12T17:02:22.308Z,100240.98
2019-03-12T17:04:54.783Z,100226.28
2019-03-12T17:07:38.393Z,100204.98
2019-03-12T17:10:23.810Z,100193.42
2019-03-12T17:13:08.235Z,100213.89
2019-03-12T17:15:54.808Z,100177.86
2019-03-12T17:18:37.930Z,100176.59
2019-03-12T17:21:23.901Z,100167.84
2019-03-12T17:24:09.134Z,100190.97
2019-03-12T17:26:56.386Z,100181.50
2019-03-12T17:29:42.804Z,100142.51
2019-03-12T17:35:02.688Z,100155.59
2019-03-12T17:40:34.900Z,100128.34
2019-03-12T17:43:19.652Z,100111.58
2019-03-12T17:46:03.706Z,100118.00
2019-03-12T17:48:47.756Z,100105.95
2019-03-12T17:51:33.862Z,100082.81
2019-03-12T17:54:17.725Z,100063.47
2019-03-12T18:02:49.485Z,100091.42
2019-03-12T18:05:34.030Z,100077.63
2019-03-12T18:08:18.091Z,100077.41
2019-03-12T18:11:01.928Z,100045.42
2019-03-12T18:13:46.005Z,100027.45
2019-03-12T18:16:18.207Z,100050.00
2019-03-12T18:19:02.166Z,100017.62
2019-03-12T18:21:47.307Z,100003.77
2019-03-12T18:24:32.015Z,100025.93
2019-03-12T18:27:17.469Z,100002.29
2019-03-12T18:30:03.696Z,100012.97
2019-03-12T18:32:50.899Z,99982.28
2019-03-12T18:35:35.088Z,99994.47
2019-03-12T18:38:23.596Z,99988.48
2019-03-12T18:41:08.245Z,99947.90
2019-03-12T18:43:51.765Z,99943.88
2019-03-12T18:46:37.789Z,99936.97
2019-03-12T18:49:23.257Z,99952.39
2019-03-12T18:52:06.975Z,99919.68
2019-03-12T18:57:58.645Z,99908.84
2019-03-12T19:00:42.651Z,99895.22
2019-03-12T19:03:26.979Z,99880.25
2019-03-12T19:06:11.592Z,99896.10
2019-03-12T19:08:56.720Z,99884.88
2019-03-12T19:11:41.094Z,99869.14
2019-03-12T19:14:24.704Z,99884.38
2019-03-12T19:17:08.890Z,99865.17
2019-03-12T19:19:41.126Z,99894.83
2019-03-12T19:22:25.275Z,99886.36
2019-03-12T19:25:09.015Z,99855.84
2019-03-12T19:28:00.145Z,99859.89
2019-03-12T19:34:06.934Z,99834.77
2019-03-12T19:39:19.381Z,99821.93
2019-03-12T19:42:03.611Z,99808.92
2019-03-12T19:44:47.129Z,99818.16
2019-03-12T19:47:32.046Z,99808.66
2019-03-12T19:53:03.810Z,99758.81
2019-03-12T19:55:48.487Z,99773.11
2019-03-12T20:01:45.948Z,99735.35
2019-03-12T20:04:29.877Z,99739.30
2019-03-12T20:07:15.694Z,99734.45
2019-03-12T20:10:20.436Z,99731.07
2019-03-12T20:13:27.362Z,99723.34
2019-03-12T20:16:31.173Z,99746.05
2019-03-12T20:19:31.805Z,99728.41
2019-03-12T20:22:22.685Z,99735.05
2019-03-12T20:25:27.388Z,99738.28
2019-03-12T20:28:31.822Z,99737.61
2019-03-12T20:34:42.859Z,99686.31
2019-03-12T20:37:48.192Z,99685.72
2019-03-12T20:40:53.111Z,99700.03
2019-03-12T20:43:57.232Z,99722.85
2019-03-12T20:50:16.688Z,99695.91
2019-03-12T21:00:15.067Z,99668.80
2019-03-12T21:03:24.983Z,99651.03
2019-03-12T21:09:56.327Z,99634.11
2019-03-12T21:13:01.926Z,99625.45
2019-03-12T21:15:54.724Z,99601.98
2019-03-12T21:19:13.098Z,99621.15
2019-03-12T21:25:17.121Z,99583.44
2019-03-12T21:28:29.415Z,99614.47
2019-03-12T21:31:15.323Z,99590.15
2019-03-12T21:34:00.283Z,99606.78
2019-03-12T21:36:44.728Z,99586.57
2019-03-12T21:39:28.410Z,99570.89
2019-03-12T21:42:12.460Z,99582.25
2019-03-12T21:44:55.805Z,99579.45
2019-03-12T21:47:39.839Z,99569.88
2019-03-12T21:50:24.477Z,99564.03
2019-03-12T21:53:09.665Z,99535.92
2019-03-12T21:55:54.295Z,99547.82
2019-03-12T21:58:38.592Z,99533.05
2019-03-12T22:01:23.195Z,99527.23
2019-03-12T22:04:07.506Z,99541.22
2019-03-12T22:06:51.678Z,99507.93
2019-03-12T22:09:35.758Z,99531.38
2019-03-12T22:12:20.307Z,99531.38
2019-03-12T22:15:04.150Z,99503.77
2019-03-12T22:17:49.399Z,99529.30
2019-03-12T22:20:33.796Z,99518.44
2019-03-12T22:26:05.060Z,99501.28
2019-03-12T22:28:49.409Z,99504.95
2019-03-12T22:31:33.714Z,99501.57
2019-03-12T22:37:05.356Z,99510.03
2019-03-12T22:39:49.269Z,99511.80
2019-03-12T22:42:33.175Z,99470.14
2019-03-12T22:45:16.900Z,99473.31
2019-03-12T22:48:02.123Z,99464.66
2019-03-12T22:50:46.821Z,99469.35
2019-03-12T22:53:30.716Z,99466.91
2019-03-12T22:56:14.469Z,99488.85
2019-03-12T22:58:59.139Z,99491.23
2019-03-12T23:02:01.447Z,99466.06
2019-03-12T23:05:08.977Z,99470.38
2019-03-12T23:08:15.577Z,99466.94
2019-03-12T23:11:09.971Z,99463.45
2019-03-12T23:13:54.212Z,99484.84
2019-03-12T23:16:40.055Z,99488.48
2019-03-12T23:19:24.239Z,99464.30
2019-03-12T23:25:10.093Z,99472.91
2019-03-12T23:27:55.717Z,99488.96
2019-03-12T23:30:40.056Z,99494.18
2019-03-12T23:33:24.111Z,99494.78
2019-03-12T23:36:08.391Z,99570.89
2019-03-12T23:38:51.928Z,99583.87
2019-03-12T23:41:35.553Z,99587.69
2019-03-12T23:44:19.914Z,99595.48
2019-03-12T23:47:03.864Z,99605.28
2019-03-12T23:58:21.644Z,99641.13
